sensor_id;sensor_type;location;lat;lon;timestamp;temperature;humidity
33931;DHT22;20215;53.130;6.408;2023-01-29T00:01:02;13.40;70.90
33931;DHT22;20215;53.130;6.408;2023-01-29T00:03:28;13.40;70.50
33931;DHT22;20215;53.130;6.408;2023-01-29T00:05:54;13.30;70.80
33931;DHT22;20215;53.130;6.408;2023-01-29T00:08:20;13.30;70.70
33931;DHT22;20215;53.130;6.408;2023-01-29T00:10:45;13.30;70.70
33931;DHT22;20215;53.130;6.408;2023-01-29T00:13:12;13.30;70.70
33931;DHT22;20215;53.130;6.408;2023-01-29T00:15:37;13.30;70.70
33931;DHT22;20215;53.130;6.408;2023-01-29T00:18:03;13.30;70.50
33931;DHT22;20215;53.130;6.408;2023-01-29T00:20:30;13.30;70.60
33931;DHT22;20215;53.130;6.408;2023-01-29T00:22:55;13.30;70.30
33931;DHT22;20215;53.130;6.408;2023-01-29T00:25:21;13.20;70.40
33931;DHT22;20215;53.130;6.408;2023-01-29T00:27:47;13.20;70.80
33931;DHT22;20215;53.130;6.408;2023-01-29T00:30:13;13.30;70.70
33931;DHT22;20215;53.130;6.408;2023-01-29T00:32:43;13.20;70.40
33931;DHT22;20215;53.130;6.408;2023-01-29T00:35:09;13.20;70.50
33931;DHT22;20215;53.130;6.408;2023-01-29T00:37:35;13.10;70.40
33931;DHT22;20215;53.130;6.408;2023-01-29T00:40:01;13.10;70.60
33931;DHT22;20215;53.130;6.408;2023-01-29T00:42:26;13.10;70.60
33931;DHT22;20215;53.130;6.408;2023-01-29T00:45:11;13.10;70.60
33931;DHT22;20215;53.130;6.408;2023-01-29T00:47:37;13.10;70.70
33931;DHT22;20215;53.130;6.408;2023-01-29T00:50:05;13.10;70.70
33931;DHT22;20215;53.130;6.408;2023-01-29T00:52:31;13.00;70.60
33931;DHT22;20215;53.130;6.408;2023-01-29T00:54:58;13.00;70.70
33931;DHT22;20215;53.130;6.408;2023-01-29T00:57:26;13.00;70.60
33931;DHT22;20215;53.130;6.408;2023-01-29T00:59:52;13.00;70.70
33931;DHT22;20215;53.130;6.408;2023-01-29T01:02:18;13.00;70.70
33931;DHT22;20215;53.130;6.408;2023-01-29T01:05:04;13.00;70.70
33931;DHT22;20215;53.130;6.408;2023-01-29T01:07:32;13.00;70.70
33931;DHT22;20215;53.130;6.408;2023-01-29T01:09:58;12.90;70.60
33931;DHT22;20215;53.130;6.408;2023-01-29T01:12:42;13.00;70.70
33931;DHT22;20215;53.130;6.408;2023-01-29T01:15:08;13.00;70.60
33931;DHT22;20215;53.130;6.408;2023-01-29T01:17:34;12.90;70.60
33931;DHT22;20215;53.130;6.408;2023-01-29T01:20:00;12.90;70.70
33931;DHT22;20215;53.130;6.408;2023-01-29T01:22:26;12.90;70.60
33931;DHT22;20215;53.130;6.408;2023-01-29T01:24:52;12.90;70.60
33931;DHT22;20215;53.130;6.408;2023-01-29T01:27:17;12.90;70.70
33931;DHT22;20215;53.130;6.408;2023-01-29T01:29:44;12.90;70.70
33931;DHT22;20215;53.130;6.408;2023-01-29T01:32:11;12.90;70.60
33931;DHT22;20215;53.130;6.408;2023-01-29T01:34:36;12.90;70.60
33931;DHT22;20215;53.130;6.408;2023-01-29T01:37:02;12.80;71.10
33931;DHT22;20215;53.130;6.408;2023-01-29T01:39:27;12.80;70.30
33931;DHT22;20215;53.130;6.408;2023-01-29T01:41:53;12.80;70.60
33931;DHT22;20215;53.130;6.408;2023-01-29T01:47:26;12.80;70.40
33931;DHT22;20215;53.130;6.408;2023-01-29T01:49:53;12.80;70.60
33931;DHT22;20215;53.130;6.408;2023-01-29T01:52:20;12.70;70.50
33931;DHT22;20215;53.130;6.408;2023-01-29T01:54:47;12.70;70.80
33931;DHT22;20215;53.130;6.408;2023-01-29T01:57:17;12.70;70.90
33931;DHT22;20215;53.130;6.408;2023-01-29T01:59:55;12.80;70.80
33931;DHT22;20215;53.130;6.408;2023-01-29T02:02:22;12.80;71.00
33931;DHT22;20215;53.130;6.408;2023-01-29T02:05:07;12.70;70.80
33931;DHT22;20215;53.130;6.408;2023-01-29T02:07:53;12.70;70.70
33931;DHT22;20215;53.130;6.408;2023-01-29T02:10:46;12.70;71.00
33931;DHT22;20215;53.130;6.408;2023-01-29T02:13:13;12.70;70.90
33931;DHT22;20215;53.130;6.408;2023-01-29T02:15:43;12.70;70.70
33931;DHT22;20215;53.130;6.408;2023-01-29T02:18:14;12.60;71.00
33931;DHT22;20215;53.130;6.408;2023-01-29T02:20:43;12.60;71.00
33931;DHT22;20215;53.130;6.408;2023-01-29T02:28:24;12.60;71.00
33931;DHT22;20215;53.130;6.408;2023-01-29T02:31:11;12.60;71.10
33931;DHT22;20215;53.130;6.408;2023-01-29T02:33:45;12.60;70.80
33931;DHT22;20215;53.130;6.408;2023-01-29T02:41:25;12.60;71.00
33931;DHT22;20215;53.130;6.408;2023-01-29T02:44:08;12.50;71.00
33931;DHT22;20215;53.130;6.408;2023-01-29T02:49:32;12.50;71.10
33931;DHT22;20215;53.130;6.408;2023-01-29T02:54:29;12.50;71.40
33931;DHT22;20215;53.130;6.408;2023-01-29T02:56:59;12.50;71.40
33931;DHT22;20215;53.130;6.408;2023-01-29T02:59:47;12.50;71.30
33931;DHT22;20215;53.130;6.408;2023-01-29T03:02:18;12.50;71.20
33931;DHT22;20215;53.130;6.408;2023-01-29T03:04:49;12.50;71.30
33931;DHT22;20215;53.130;6.408;2023-01-29T03:07:24;12.50;71.40
33931;DHT22;20215;53.130;6.408;2023-01-29T03:10:15;12.50;71.20
33931;DHT22;20215;53.130;6.408;2023-01-29T03:12:43;12.50;71.30
33931;DHT22;20215;53.130;6.408;2023-01-29T03:15:19;12.50;71.30
33931;DHT22;20215;53.130;6.408;2023-01-29T03:18:05;12.50;71.10
33931;DHT22;20215;53.130;6.408;2023-01-29T03:20:36;12.40;71.00
33931;DHT22;20215;53.130;6.408;2023-01-29T03:23:09;12.40;71.20
33931;DHT22;20215;53.130;6.408;2023-01-29T03:25:37;12.40;71.30
33931;DHT22;20215;53.130;6.408;2023-01-29T03:28:24;12.40;71.40
33931;DHT22;20215;53.130;6.408;2023-01-29T03:31:11;12.40;71.50
33931;DHT22;20215;53.130;6.408;2023-01-29T03:34:10;12.40;71.60
33931;DHT22;20215;53.130;6.408;2023-01-29T03:36:56;12.40;71.50
33931;DHT22;20215;53.130;6.408;2023-01-29T03:39:25;12.40;71.50
33931;DHT22;20215;53.130;6.408;2023-01-29T03:42:03;12.30;71.40
33931;DHT22;20215;53.130;6.408;2023-01-29T03:47:17;12.30;71.70
33931;DHT22;20215;53.130;6.408;2023-01-29T03:50:01;12.30;71.50
33931;DHT22;20215;53.130;6.408;2023-01-29T03:52:50;12.30;71.60
33931;DHT22;20215;53.130;6.408;2023-01-29T03:55:43;12.30;71.70
33931;DHT22;20215;53.130;6.408;2023-01-29T03:58:22;12.40;71.50
33931;DHT22;20215;53.130;6.408;2023-01-29T04:00:56;12.30;71.70
33931;DHT22;20215;53.130;6.408;2023-01-29T04:03:36;12.30;71.70
33931;DHT22;20215;53.130;6.408;2023-01-29T04:06:11;12.40;71.50
33931;DHT22;20215;53.130;6.408;2023-01-29T04:11:16;12.30;71.70
33931;DHT22;20215;53.130;6.408;2023-01-29T04:13:44;12.30;71.70
33931;DHT22;20215;53.130;6.408;2023-01-29T04:16:15;12.30;71.70
33931;DHT22;20215;53.130;6.408;2023-01-29T04:18:48;12.30;71.60
33931;DHT22;20215;53.130;6.408;2023-01-29T04:21:15;12.30;71.50
33931;DHT22;20215;53.130;6.408;2023-01-29T04:23:40;12.30;72.10
33931;DHT22;20215;53.130;6.408;2023-01-29T04:26:53;12.20;71.50
33931;DHT22;20215;53.130;6.408;2023-01-29T04:29:08;12.30;71.60
33931;DHT22;20215;53.130;6.408;2023-01-29T04:31:54;12.30;71.60
33931;DHT22;20215;53.130;6.408;2023-01-29T04:51:03;12.30;73.00
33931;DHT22;20215;53.130;6.408;2023-01-29T04:53:48;12.40;73.20
33931;DHT22;20215;53.130;6.408;2023-01-29T04:56:19;12.40;73.20
33931;DHT22;20215;53.130;6.408;2023-01-29T04:58:51;12.50;73.40
33931;DHT22;20215;53.130;6.408;2023-01-29T05:01:18;12.50;73.40
33931;DHT22;20215;53.130;6.408;2023-01-29T05:03:49;12.60;73.50
33931;DHT22;20215;53.130;6.408;2023-01-29T05:06:17;12.60;73.60
33931;DHT22;20215;53.130;6.408;2023-01-29T05:08:45;12.70;73.60
33931;DHT22;20215;53.130;6.408;2023-01-29T05:11:11;12.70;73.80
33931;DHT22;20215;53.130;6.408;2023-01-29T05:13:40;12.80;74.00
33931;DHT22;20215;53.130;6.408;2023-01-29T05:16:16;12.80;74.20
33931;DHT22;20215;53.130;6.408;2023-01-29T05:18:44;12.90;74.00
33931;DHT22;20215;53.130;6.408;2023-01-29T05:21:10;12.90;73.90
33931;DHT22;20215;53.130;6.408;2023-01-29T05:23:36;13.00;74.20
33931;DHT22;20215;53.130;6.408;2023-01-29T05:26:02;13.00;74.20
33931;DHT22;20215;53.130;6.408;2023-01-29T05:28:28;13.10;74.40
33931;DHT22;20215;53.130;6.408;2023-01-29T05:30:55;13.10;74.60
33931;DHT22;20215;53.130;6.408;2023-01-29T05:33:26;13.20;74.80
33931;DHT22;20215;53.130;6.408;2023-01-29T05:35:52;13.30;74.50
33931;DHT22;20215;53.130;6.408;2023-01-29T05:38:19;13.30;74.40
33931;DHT22;20215;53.130;6.408;2023-01-29T05:40:45;13.30;74.70
33931;DHT22;20215;53.130;6.408;2023-01-29T05:43:22;13.40;74.60
33931;DHT22;20215;53.130;6.408;2023-01-29T05:45:57;13.40;74.60
33931;DHT22;20215;53.130;6.408;2023-01-29T05:48:24;13.40;74.00
33931;DHT22;20215;53.130;6.408;2023-01-29T05:50:50;13.50;74.20
33931;DHT22;20215;53.130;6.408;2023-01-29T05:53:16;13.40;74.20
33931;DHT22;20215;53.130;6.408;2023-01-29T05:55:46;13.50;74.20
33931;DHT22;20215;53.130;6.408;2023-01-29T05:58:12;13.50;74.10
33931;DHT22;20215;53.130;6.408;2023-01-29T06:00:38;13.50;74.10
33931;DHT22;20215;53.130;6.408;2023-01-29T06:03:04;13.50;74.20
33931;DHT22;20215;53.130;6.408;2023-01-29T06:05:30;13.50;74.20
33931;DHT22;20215;53.130;6.408;2023-01-29T06:07:56;13.50;74.10
33931;DHT22;20215;53.130;6.408;2023-01-29T06:10:22;13.50;74.00
33931;DHT22;20215;53.130;6.408;2023-01-29T06:12:48;13.50;73.70
33931;DHT22;20215;53.130;6.408;2023-01-29T06:15:14;13.50;73.50
33931;DHT22;20215;53.130;6.408;2023-01-29T06:17:44;13.50;73.70
33931;DHT22;20215;53.130;6.408;2023-01-29T06:20:10;13.50;73.80
33931;DHT22;20215;53.130;6.408;2023-01-29T06:22:36;13.50;73.70
33931;DHT22;20215;53.130;6.408;2023-01-29T06:25:01;13.50;73.50
33931;DHT22;20215;53.130;6.408;2023-01-29T06:27:27;13.50;73.60
33931;DHT22;20215;53.130;6.408;2023-01-29T06:29:52;13.50;73.70
33931;DHT22;20215;53.130;6.408;2023-01-29T06:32:18;13.50;73.80
33931;DHT22;20215;53.130;6.408;2023-01-29T06:34:44;13.60;73.80
33931;DHT22;20215;53.130;6.408;2023-01-29T06:37:09;13.60;73.90
33931;DHT22;20215;53.130;6.408;2023-01-29T06:39:35;13.60;73.20
33931;DHT22;20215;53.130;6.408;2023-01-29T06:42:00;13.60;73.60
33931;DHT22;20215;53.130;6.408;2023-01-29T06:44:26;13.60;73.10
33931;DHT22;20215;53.130;6.408;2023-01-29T06:46:52;13.60;73.20
33931;DHT22;20215;53.130;6.408;2023-01-29T06:49:17;13.60;73.40
33931;DHT22;20215;53.130;6.408;2023-01-29T06:51:43;13.60;73.20
33931;DHT22;20215;53.130;6.408;2023-01-29T06:54:09;13.60;73.50
33931;DHT22;20215;53.130;6.408;2023-01-29T06:56:35;13.60;73.50
33931;DHT22;20215;53.130;6.408;2023-01-29T06:59:00;13.60;73.30
33931;DHT22;20215;53.130;6.408;2023-01-29T07:01:26;13.60;73.50
33931;DHT22;20215;53.130;6.408;2023-01-29T07:03:52;13.60;73.50
33931;DHT22;20215;53.130;6.408;2023-01-29T07:06:18;13.60;73.50
33931;DHT22;20215;53.130;6.408;2023-01-29T07:08:44;13.60;73.10
33931;DHT22;20215;53.130;6.408;2023-01-29T07:11:10;13.70;73.30
33931;DHT22;20215;53.130;6.408;2023-01-29T07:13:36;13.70;73.60
33931;DHT22;20215;53.130;6.408;2023-01-29T07:16:03;13.70;73.70
33931;DHT22;20215;53.130;6.408;2023-01-29T07:18:29;13.70;73.50
33931;DHT22;20215;53.130;6.408;2023-01-29T07:20:56;13.70;73.50
33931;DHT22;20215;53.130;6.408;2023-01-29T07:23:21;13.70;73.60
33931;DHT22;20215;53.130;6.408;2023-01-29T07:25:47;13.70;73.70
33931;DHT22;20215;53.130;6.408;2023-01-29T07:28:15;13.70;73.70
33931;DHT22;20215;53.130;6.408;2023-01-29T07:30:41;13.70;73.60
33931;DHT22;20215;53.130;6.408;2023-01-29T07:33:08;13.70;73.20
33931;DHT22;20215;53.130;6.408;2023-01-29T07:35:38;13.80;73.60
33931;DHT22;20215;53.130;6.408;2023-01-29T07:38:05;13.80;73.00
33931;DHT22;20215;53.130;6.408;2023-01-29T07:40:31;13.80;73.30
33931;DHT22;20215;53.130;6.408;2023-01-29T07:43:04;13.70;72.90
33931;DHT22;20215;53.130;6.408;2023-01-29T07:45:33;13.70;72.70
33931;DHT22;20215;53.130;6.408;2023-01-29T07:47:58;13.70;72.80
33931;DHT22;20215;53.130;6.408;2023-01-29T07:50:25;13.70;72.80
33931;DHT22;20215;53.130;6.408;2023-01-29T07:52:53;13.70;73.00
33931;DHT22;20215;53.130;6.408;2023-01-29T07:55:19;13.70;72.80
33931;DHT22;20215;53.130;6.408;2023-01-29T07:57:45;13.70;72.30
33931;DHT22;20215;53.130;6.408;2023-01-29T08:00:12;13.60;72.30
33931;DHT22;20215;53.130;6.408;2023-01-29T08:02:39;13.60;72.50
33931;DHT22;20215;53.130;6.408;2023-01-29T08:05:06;13.60;72.50
33931;DHT22;20215;53.130;6.408;2023-01-29T08:07:32;13.60;72.40
33931;DHT22;20215;53.130;6.408;2023-01-29T08:09:57;13.60;72.40
33931;DHT22;20215;53.130;6.408;2023-01-29T08:12:23;13.60;72.50
33931;DHT22;20215;53.130;6.408;2023-01-29T08:14:48;13.60;72.50
33931;DHT22;20215;53.130;6.408;2023-01-29T08:17:14;13.60;72.50
33931;DHT22;20215;53.130;6.408;2023-01-29T08:19:40;13.50;72.30
33931;DHT22;20215;53.130;6.408;2023-01-29T08:22:06;13.50;72.30
33931;DHT22;20215;53.130;6.408;2023-01-29T08:24:31;13.50;72.20
33931;DHT22;20215;53.130;6.408;2023-01-29T08:26:57;13.50;72.30
33931;DHT22;20215;53.130;6.408;2023-01-29T08:29:23;13.50;72.10
33931;DHT22;20215;53.130;6.408;2023-01-29T08:31:49;13.50;72.20
33931;DHT22;20215;53.130;6.408;2023-01-29T08:34:14;13.40;72.20
33931;DHT22;20215;53.130;6.408;2023-01-29T08:36:40;13.40;72.00
33931;DHT22;20215;53.130;6.408;2023-01-29T08:39:06;13.40;71.90
33931;DHT22;20215;53.130;6.408;2023-01-29T08:41:31;13.40;72.00
33931;DHT22;20215;53.130;6.408;2023-01-29T08:43:57;13.40;72.10
33931;DHT22;20215;53.130;6.408;2023-01-29T08:46:24;13.30;72.10
33931;DHT22;20215;53.130;6.408;2023-01-29T08:48:50;13.30;72.00
33931;DHT22;20215;53.130;6.408;2023-01-29T08:51:16;13.30;72.00
33931;DHT22;20215;53.130;6.408;2023-01-29T08:53:42;13.30;72.00
33931;DHT22;20215;53.130;6.408;2023-01-29T08:56:07;13.30;71.90
33931;DHT22;20215;53.130;6.408;2023-01-29T08:58:33;13.30;71.60
33931;DHT22;20215;53.130;6.408;2023-01-29T09:01:09;13.30;71.90
33931;DHT22;20215;53.130;6.408;2023-01-29T09:03:35;13.20;71.90
33931;DHT22;20215;53.130;6.408;2023-01-29T09:06:01;13.20;72.20
33931;DHT22;20215;53.130;6.408;2023-01-29T09:08:27;13.20;72.00
33931;DHT22;20215;53.130;6.408;2023-01-29T09:10:53;13.20;71.60
33931;DHT22;20215;53.130;6.408;2023-01-29T09:13:18;13.20;71.70
33931;DHT22;20215;53.130;6.408;2023-01-29T09:15:44;13.20;71.90
33931;DHT22;20215;53.130;6.408;2023-01-29T09:18:10;13.10;72.00
33931;DHT22;20215;53.130;6.408;2023-01-29T09:20:35;13.10;71.90
33931;DHT22;20215;53.130;6.408;2023-01-29T09:23:06;13.10;72.00
33931;DHT22;20215;53.130;6.408;2023-01-29T09:25:33;13.10;71.60
33931;DHT22;20215;53.130;6.408;2023-01-29T09:27:58;13.10;71.90
33931;DHT22;20215;53.130;6.408;2023-01-29T09:30:24;13.10;72.00
33931;DHT22;20215;53.130;6.408;2023-01-29T09:32:50;13.10;72.00
33931;DHT22;20215;53.130;6.408;2023-01-29T09:35:15;13.10;71.90
33931;DHT22;20215;53.130;6.408;2023-01-29T09:37:41;13.10;71.90
33931;DHT22;20215;53.130;6.408;2023-01-29T09:40:25;13.10;71.90
33931;DHT22;20215;53.130;6.408;2023-01-29T09:42:59;13.10;71.90
33931;DHT22;20215;53.130;6.408;2023-01-29T09:45:27;13.10;71.90
33931;DHT22;20215;53.130;6.408;2023-01-29T09:48:02;13.00;72.00
33931;DHT22;20215;53.130;6.408;2023-01-29T09:50:35;13.00;71.70
33931;DHT22;20215;53.130;6.408;2023-01-29T09:53:12;13.00;71.70
33931;DHT22;20215;53.130;6.408;2023-01-29T09:55:55;13.00;71.90
33931;DHT22;20215;53.130;6.408;2023-01-29T09:58:28;12.90;71.80
33931;DHT22;20215;53.130;6.408;2023-01-29T10:12:18;12.90;72.00
33931;DHT22;20215;53.130;6.408;2023-01-29T10:25:47;12.80;72.50
33931;DHT22;20215;53.130;6.408;2023-01-29T10:31:06;12.90;72.60
33931;DHT22;20215;53.130;6.408;2023-01-29T10:33:41;12.80;72.50
33931;DHT22;20215;53.130;6.408;2023-01-29T10:36:24;12.80;72.50
33931;DHT22;20215;53.130;6.408;2023-01-29T10:38:51;12.80;72.60
33931;DHT22;20215;53.130;6.408;2023-01-29T10:57:51;12.70;72.90
33931;DHT22;20215;53.130;6.408;2023-01-29T11:00:22;12.70;73.00
33931;DHT22;20215;53.130;6.408;2023-01-29T11:02:50;12.70;73.10
33931;DHT22;20215;53.130;6.408;2023-01-29T11:05:24;12.70;73.00
33931;DHT22;20215;53.130;6.408;2023-01-29T11:08:14;12.70;73.00
33931;DHT22;20215;53.130;6.408;2023-01-29T11:11:07;12.70;73.00
33931;DHT22;20215;53.130;6.408;2023-01-29T11:13:41;12.70;73.10
33931;DHT22;20215;53.130;6.408;2023-01-29T11:16:09;12.70;73.20
33931;DHT22;20215;53.130;6.408;2023-01-29T11:18:51;12.60;73.20
33931;DHT22;20215;53.130;6.408;2023-01-29T11:21:17;12.70;73.20
33931;DHT22;20215;53.130;6.408;2023-01-29T11:23:43;12.60;73.20
33931;DHT22;20215;53.130;6.408;2023-01-29T11:26:11;12.60;73.20
33931;DHT22;20215;53.130;6.408;2023-01-29T11:28:40;12.60;73.30
33931;DHT22;20215;53.130;6.408;2023-01-29T11:31:20;12.60;73.30
33931;DHT22;20215;53.130;6.408;2023-01-29T11:33:46;12.60;73.20
33931;DHT22;20215;53.130;6.408;2023-01-29T11:36:25;12.60;73.30
33931;DHT22;20215;53.130;6.408;2023-01-29T11:39:24;12.60;73.40
33931;DHT22;20215;53.130;6.408;2023-01-29T11:42:03;12.60;73.40
33931;DHT22;20215;53.130;6.408;2023-01-29T11:47:21;12.60;73.40
33931;DHT22;20215;53.130;6.408;2023-01-29T11:52:21;12.60;73.50
33931;DHT22;20215;53.130;6.408;2023-01-29T11:54:53;12.60;73.50
33931;DHT22;20215;53.130;6.408;2023-01-29T11:57:33;12.60;73.60
33931;DHT22;20215;53.130;6.408;2023-01-29T12:00:33;12.60;73.70
33931;DHT22;20215;53.130;6.408;2023-01-29T12:03:29;12.60;73.70
33931;DHT22;20215;53.130;6.408;2023-01-29T12:08:36;12.60;73.50
33931;DHT22;20215;53.130;6.408;2023-01-29T12:11:33;12.60;73.70
33931;DHT22;20215;53.130;6.408;2023-01-29T12:14:02;12.60;73.50
33931;DHT22;20215;53.130;6.408;2023-01-29T12:16:42;12.60;73.70
33931;DHT22;20215;53.130;6.408;2023-01-29T12:24:57;12.50;73.90
33931;DHT22;20215;53.130;6.408;2023-01-29T12:27:32;12.60;73.90
33931;DHT22;20215;53.130;6.408;2023-01-29T12:30:11;12.50;74.10
33931;DHT22;20215;53.130;6.408;2023-01-29T12:35:27;12.50;73.90
33931;DHT22;20215;53.130;6.408;2023-01-29T12:38:09;12.50;74.00
33931;DHT22;20215;53.130;6.408;2023-01-29T12:40:52;12.50;74.00
33931;DHT22;20215;53.130;6.408;2023-01-29T12:43:31;12.50;74.10
33931;DHT22;20215;53.130;6.408;2023-01-29T12:46:00;12.50;74.20
33931;DHT22;20215;53.130;6.408;2023-01-29T12:48:33;12.50;74.00
33931;DHT22;20215;53.130;6.408;2023-01-29T12:51:27;12.50;74.00
33931;DHT22;20215;53.130;6.408;2023-01-29T12:54:05;12.50;74.30
33931;DHT22;20215;53.130;6.408;2023-01-29T12:56:38;12.50;74.30
33931;DHT22;20215;53.130;6.408;2023-01-29T13:01:51;12.50;74.30
33931;DHT22;20215;53.130;6.408;2023-01-29T13:07:25;12.50;74.60
33931;DHT22;20215;53.130;6.408;2023-01-29T13:10:00;12.50;74.70
33931;DHT22;20215;53.130;6.408;2023-01-29T13:12:27;12.40;74.50
33931;DHT22;20215;53.130;6.408;2023-01-29T13:14:59;12.40;74.50
33931;DHT22;20215;53.130;6.408;2023-01-29T13:17:36;12.40;74.60
33931;DHT22;20215;53.130;6.408;2023-01-29T13:20:42;12.40;74.60
33931;DHT22;20215;53.130;6.408;2023-01-29T13:23:18;12.40;74.80
33931;DHT22;20215;53.130;6.408;2023-01-29T13:25:49;12.40;74.70
33931;DHT22;20215;53.130;6.408;2023-01-29T13:28:20;12.40;74.80
33931;DHT22;20215;53.130;6.408;2023-01-29T13:30:46;12.40;74.90
33931;DHT22;20215;53.130;6.408;2023-01-29T13:33:32;12.40;74.90
33931;DHT22;20215;53.130;6.408;2023-01-29T13:35:59;12.40;75.20
33931;DHT22;20215;53.130;6.408;2023-01-29T13:38:28;12.40;74.70
33931;DHT22;20215;53.130;6.408;2023-01-29T13:40:59;12.40;74.80
33931;DHT22;20215;53.130;6.408;2023-01-29T13:43:26;12.40;74.70
33931;DHT22;20215;53.130;6.408;2023-01-29T13:45:53;12.40;74.70
33931;DHT22;20215;53.130;6.408;2023-01-29T13:48:29;12.40;74.90
33931;DHT22;20215;53.130;6.408;2023-01-29T13:51:02;12.40;74.70
33931;DHT22;20215;53.130;6.408;2023-01-29T13:53:36;12.40;74.70
33931;DHT22;20215;53.130;6.408;2023-01-29T13:56:28;12.50;74.80
33931;DHT22;20215;53.130;6.408;2023-01-29T13:58:55;12.40;74.70
33931;DHT22;20215;53.130;6.408;2023-01-29T14:06:49;12.40;75.00
33931;DHT22;20215;53.130;6.408;2023-01-29T14:12:38;12.40;75.40
33931;DHT22;20215;53.130;6.408;2023-01-29T14:15:19;12.40;75.20
33931;DHT22;20215;53.130;6.408;2023-01-29T14:17:54;12.40;75.70
33931;DHT22;20215;53.130;6.408;2023-01-29T14:20:29;12.30;75.70
33931;DHT22;20215;53.130;6.408;2023-01-29T14:22:57;12.30;75.40
33931;DHT22;20215;53.130;6.408;2023-01-29T14:25:37;12.30;75.70
33931;DHT22;20215;53.130;6.408;2023-01-29T14:28:12;12.30;75.30
33931;DHT22;20215;53.130;6.408;2023-01-29T14:30:38;12.30;75.50
33931;DHT22;20215;53.130;6.408;2023-01-29T14:36:11;12.30;75.30
33931;DHT22;20215;53.130;6.408;2023-01-29T14:38:39;12.30;75.40
33931;DHT22;20215;53.130;6.408;2023-01-29T14:41:28;12.30;75.60
33931;DHT22;20215;53.130;6.408;2023-01-29T14:46:58;12.30;75.90
33931;DHT22;20215;53.130;6.408;2023-01-29T14:49:49;12.30;75.50
33931;DHT22;20215;53.130;6.408;2023-01-29T14:52:16;12.20;75.60
33931;DHT22;20215;53.130;6.408;2023-01-29T14:54:45;12.20;75.80
33931;DHT22;20215;53.130;6.408;2023-01-29T14:57:14;12.20;75.60
33931;DHT22;20215;53.130;6.408;2023-01-29T15:00:02;12.30;75.90
33931;DHT22;20215;53.130;6.408;2023-01-29T15:02:41;12.20;75.80
33931;DHT22;20215;53.130;6.408;2023-01-29T15:05:15;12.20;76.00
33931;DHT22;20215;53.130;6.408;2023-01-29T15:07:47;12.20;76.00
33931;DHT22;20215;53.130;6.408;2023-01-29T15:13:36;12.20;75.70
33931;DHT22;20215;53.130;6.408;2023-01-29T15:16:13;12.20;75.70
33931;DHT22;20215;53.130;6.408;2023-01-29T15:18:41;12.30;75.80
33931;DHT22;20215;53.130;6.408;2023-01-29T15:21:12;12.20;75.80
33931;DHT22;20215;53.130;6.408;2023-01-29T15:23:39;12.20;75.70
33931;DHT22;20215;53.130;6.408;2023-01-29T15:26:07;12.10;75.60
33931;DHT22;20215;53.130;6.408;2023-01-29T15:28:37;12.20;76.00
33931;DHT22;20215;53.130;6.408;2023-01-29T15:31:05;12.20;75.50
33931;DHT22;20215;53.130;6.408;2023-01-29T15:33:33;12.20;75.80
33931;DHT22;20215;53.130;6.408;2023-01-29T15:36:04;12.20;75.70
33931;DHT22;20215;53.130;6.408;2023-01-29T15:38:30;12.20;75.60
33931;DHT22;20215;53.130;6.408;2023-01-29T15:43:34;12.20;75.80
33931;DHT22;20215;53.130;6.408;2023-01-29T15:46:13;12.20;75.70
33931;DHT22;20215;53.130;6.408;2023-01-29T15:48:42;12.20;75.90
33931;DHT22;20215;53.130;6.408;2023-01-29T15:51:13;12.20;76.30
33931;DHT22;20215;53.130;6.408;2023-01-29T15:53:40;12.20;75.70
33931;DHT22;20215;53.130;6.408;2023-01-29T15:56:11;12.10;75.90
33931;DHT22;20215;53.130;6.408;2023-01-29T15:58:40;12.10;75.80
33931;DHT22;20215;53.130;6.408;2023-01-29T16:01:07;12.10;75.80
33931;DHT22;20215;53.130;6.408;2023-01-29T16:03:35;12.10;75.90
33931;DHT22;20215;53.130;6.408;2023-01-29T16:06:02;12.10;75.80
33931;DHT22;20215;53.130;6.408;2023-01-29T16:08:32;12.10;76.20
33931;DHT22;20215;53.130;6.408;2023-01-29T16:11:00;12.20;76.30
33931;DHT22;20215;53.130;6.408;2023-01-29T16:13:29;12.20;76.30
33931;DHT22;20215;53.130;6.408;2023-01-29T16:16:00;12.20;76.40
33931;DHT22;20215;53.130;6.408;2023-01-29T16:18:36;12.30;76.50
33931;DHT22;20215;53.130;6.408;2023-01-29T16:21:22;12.30;76.80
33931;DHT22;20215;53.130;6.408;2023-01-29T16:23:52;12.30;77.20
33931;DHT22;20215;53.130;6.408;2023-01-29T16:26:23;12.40;77.10
33931;DHT22;20215;53.130;6.408;2023-01-29T16:28:49;12.40;77.40
33931;DHT22;20215;53.130;6.408;2023-01-29T16:31:27;12.50;77.70
33931;DHT22;20215;53.130;6.408;2023-01-29T16:33:53;12.50;77.70
33931;DHT22;20215;53.130;6.408;2023-01-29T16:36:24;12.60;77.90
33931;DHT22;20215;53.130;6.408;2023-01-29T16:39:01;12.70;77.90
33931;DHT22;20215;53.130;6.408;2023-01-29T16:44:00;12.80;78.00
33931;DHT22;20215;53.130;6.408;2023-01-29T16:46:37;12.90;78.10
33931;DHT22;20215;53.130;6.408;2023-01-29T16:51:53;13.00;78.10
33931;DHT22;20215;53.130;6.408;2023-01-29T16:54:23;13.00;78.10
33931;DHT22;20215;53.130;6.408;2023-01-29T16:56:52;13.10;78.20
33931;DHT22;20215;53.130;6.408;2023-01-29T16:59:30;13.10;78.00
33931;DHT22;20215;53.130;6.408;2023-01-29T17:01:57;13.10;78.10
33931;DHT22;20215;53.130;6.408;2023-01-29T17:04:23;13.20;77.80
33931;DHT22;20215;53.130;6.408;2023-01-29T17:06:54;13.20;77.80
33931;DHT22;20215;53.130;6.408;2023-01-29T17:09:28;13.20;77.60
33931;DHT22;20215;53.130;6.408;2023-01-29T17:11:58;13.20;77.70
33931;DHT22;20215;53.130;6.408;2023-01-29T17:14:25;13.20;77.60
33931;DHT22;20215;53.130;6.408;2023-01-29T17:17:13;13.20;77.60
33931;DHT22;20215;53.130;6.408;2023-01-29T17:19:39;13.20;77.50
33931;DHT22;20215;53.130;6.408;2023-01-29T17:22:05;13.20;77.50
33931;DHT22;20215;53.130;6.408;2023-01-29T17:24:33;13.30;77.50
33931;DHT22;20215;53.130;6.408;2023-01-29T17:27:00;13.20;77.30
33931;DHT22;20215;53.130;6.408;2023-01-29T17:29:29;13.20;77.20
33931;DHT22;20215;53.130;6.408;2023-01-29T17:31:55;13.30;77.10
33931;DHT22;20215;53.130;6.408;2023-01-29T17:34:24;13.20;77.10
33931;DHT22;20215;53.130;6.408;2023-01-29T17:36:50;13.20;77.10
33931;DHT22;20215;53.130;6.408;2023-01-29T17:39:21;13.20;77.20
33931;DHT22;20215;53.130;6.408;2023-01-29T17:41:50;13.20;76.90
33931;DHT22;20215;53.130;6.408;2023-01-29T17:44:16;13.20;76.80
33931;DHT22;20215;53.130;6.408;2023-01-29T17:46:42;13.20;77.10
33931;DHT22;20215;53.130;6.408;2023-01-29T17:49:26;13.20;77.60
33931;DHT22;20215;53.130;6.408;2023-01-29T17:51:53;13.20;76.90
33931;DHT22;20215;53.130;6.408;2023-01-29T17:54:20;13.20;77.00
33931;DHT22;20215;53.130;6.408;2023-01-29T17:56:46;13.30;77.10
33931;DHT22;20215;53.130;6.408;2023-01-29T17:59:15;13.20;76.80
33931;DHT22;20215;53.130;6.408;2023-01-29T18:01:41;13.20;76.80
33931;DHT22;20215;53.130;6.408;2023-01-29T18:04:07;13.20;76.90